Etusivu
METAR-TAF:

METAR-TAF

Lentoasemat :

Bleibler Ranch Aerodrome

Clinton, Brittiläinen Kolumbia, Kanada

Leveyspiiri: 51-15-59N, Pituuspiiri: 121-41-05W, korkeus merenpinnasta: 1126 m

Tämänhetkinen sää

Tämä raportti tehtiin 28 minuuttia sitten, kello 15.00 UTC
Tuuli 3 kn kaakosta, vaihdellen idän/kaakon ja etelän välillä
Lämpötila 6°C
Kosteus 61%
Ilmanpaine 1021 hPa
Näkyvyys: 14.5 km
Pilvistä 5500 ft:n korkeudessa

METAR: CYIN 031500Z AUTO 14003KT 120V180 9SM OVC055 06/M01 A3015 RMK SLP220

Aika: 08:28 (15:28 UTC)


TAF: puuttuu

Säähavainnot ja -ennusteet yli 4000 lentoasemalta (METAR- ja TAF-raportit).

Käytössä olevat sääasemat on merkitty karttaan keltaisilla ja punaisilla pisteillä.

Aseta hiiri pisteen päälle nähdäksesi sääaseman nimen.

Klikkaa sitten nähdäksesi säähavainnot ja -ennusteet.

Kartan vaihtaminen: klikkaa mustalla rastilla varustettuja vihreitä pisteitä, niin voit zoomata sisään; viivalla varustettua vihreää pistettä, niin voit zoomata ulos tai vihreitä nuolia, niin pääset viereisille kartoille.


METAR-TAF: